sensor_id;sensor_type;location;lat;lon;timestamp;temperature;humidity
53254;DHT22;39148;53.332;6.922;2023-02-12T00:00:39;9.60;93.30
53254;DHT22;39148;53.332;6.922;2023-02-12T00:03:05;9.80;93.40
53254;DHT22;39148;53.332;6.922;2023-02-12T00:05:31;9.60;93.30
53254;DHT22;39148;53.332;6.922;2023-02-12T00:07:57;9.60;92.60
53254;DHT22;39148;53.332;6.922;2023-02-12T00:10:23;9.80;93.30
53254;DHT22;39148;53.332;6.922;2023-02-12T00:12:49;9.80;93.30
53254;DHT22;39148;53.332;6.922;2023-02-12T00:15:15;9.70;92.60
53254;DHT22;39148;53.332;6.922;2023-02-12T00:17:40;9.60;93.30
53254;DHT22;39148;53.332;6.922;2023-02-12T00:20:07;9.60;93.30
53254;DHT22;39148;53.332;6.922;2023-02-12T00:22:32;9.70;92.60
53254;DHT22;39148;53.332;6.922;2023-02-12T00:27:24;9.70;92.60
53254;DHT22;39148;53.332;6.922;2023-02-12T00:29:50;9.70;93.30
53254;DHT22;39148;53.332;6.922;2023-02-12T00:32:16;9.70;93.30
53254;DHT22;39148;53.332;6.922;2023-02-12T00:34:47;9.60;93.30
53254;DHT22;39148;53.332;6.922;2023-02-12T00:39:40;9.70;93.40
53254;DHT22;39148;53.332;6.922;2023-02-12T00:42:06;9.70;93.30
53254;DHT22;39148;53.332;6.922;2023-02-12T00:49:27;9.70;92.40
53254;DHT22;39148;53.332;6.922;2023-02-12T00:54:19;9.60;92.60
53254;DHT22;39148;53.332;6.922;2023-02-12T00:56:45;9.40;93.30
53254;DHT22;39148;53.332;6.922;2023-02-12T00:59:11;9.70;93.40
53254;DHT22;39148;53.332;6.922;2023-02-12T01:01:36;9.70;93.50
53254;DHT22;39148;53.332;6.922;2023-02-12T01:06:28;9.60;93.40
53254;DHT22;39148;53.332;6.922;2023-02-12T01:11:20;9.60;92.60
53254;DHT22;39148;53.332;6.922;2023-02-12T01:16:21;9.60;92.50
53254;DHT22;39148;53.332;6.922;2023-02-12T01:18:47;9.60;92.60
53254;DHT22;39148;53.332;6.922;2023-02-12T01:21:33;9.60;92.50
53254;DHT22;39148;53.332;6.922;2023-02-12T01:23:59;9.60;92.60
53254;DHT22;39148;53.332;6.922;2023-02-12T01:26:27;9.60;93.30
53254;DHT22;39148;53.332;6.922;2023-02-12T01:28:58;9.50;93.30
53254;DHT22;39148;53.332;6.922;2023-02-12T01:31:28;9.60;92.60
53254;DHT22;39148;53.332;6.922;2023-02-12T01:33:55;9.60;92.50
53254;DHT22;39148;53.332;6.922;2023-02-12T01:38:48;9.60;92.20
53254;DHT22;39148;53.332;6.922;2023-02-12T01:41:18;9.60;92.50
53254;DHT22;39148;53.332;6.922;2023-02-12T01:43:44;9.70;93.40
53254;DHT22;39148;53.332;6.922;2023-02-12T01:46:13;9.60;93.40
53254;DHT22;39148;53.332;6.922;2023-02-12T01:48:44;9.50;93.40
53254;DHT22;39148;53.332;6.922;2023-02-12T01:51:14;9.40;93.30
53254;DHT22;39148;53.332;6.922;2023-02-12T01:53:46;9.50;93.40
53254;DHT22;39148;53.332;6.922;2023-02-12T01:56:13;9.50;92.60
53254;DHT22;39148;53.332;6.922;2023-02-12T01:58:42;9.60;92.70
53254;DHT22;39148;53.332;6.922;2023-02-12T02:01:12;9.50;93.30
53254;DHT22;39148;53.332;6.922;2023-02-12T02:03:41;9.50;92.50
53254;DHT22;39148;53.332;6.922;2023-02-12T02:06:11;9.40;93.40
53254;DHT22;39148;53.332;6.922;2023-02-12T02:08:38;9.50;93.30
53254;DHT22;39148;53.332;6.922;2023-02-12T02:13:51;9.50;92.60
53254;DHT22;39148;53.332;6.922;2023-02-12T02:16:39;9.60;93.40
53254;DHT22;39148;53.332;6.922;2023-02-12T02:22:21;9.50;92.50
53254;DHT22;39148;53.332;6.922;2023-02-12T02:27:25;9.50;92.70
53254;DHT22;39148;53.332;6.922;2023-02-12T02:32:47;9.50;93.40
53254;DHT22;39148;53.332;6.922;2023-02-12T02:35:22;9.50;92.70
53254;DHT22;39148;53.332;6.922;2023-02-12T02:40:26;9.50;93.40
53254;DHT22;39148;53.332;6.922;2023-02-12T02:43:05;9.50;92.60
53254;DHT22;39148;53.332;6.922;2023-02-12T02:45:52;9.50;93.50
53254;DHT22;39148;53.332;6.922;2023-02-12T02:48:26;9.50;92.70
53254;DHT22;39148;53.332;6.922;2023-02-12T02:50:58;9.60;93.40
53254;DHT22;39148;53.332;6.922;2023-02-12T02:53:30;9.50;92.50
53254;DHT22;39148;53.332;6.922;2023-02-12T02:55:59;9.40;93.40
53254;DHT22;39148;53.332;6.922;2023-02-12T02:58:40;9.50;92.70
53254;DHT22;39148;53.332;6.922;2023-02-12T03:01:14;9.40;93.40
53254;DHT22;39148;53.332;6.922;2023-02-12T03:11:27;9.40;92.70
53254;DHT22;39148;53.332;6.922;2023-02-12T03:14:06;9.50;92.70
53254;DHT22;39148;53.332;6.922;2023-02-12T03:16:53;9.40;93.40
53254;DHT22;39148;53.332;6.922;2023-02-12T03:19:24;9.40;92.50
53254;DHT22;39148;53.332;6.922;2023-02-12T03:22:00;9.30;93.40
53254;DHT22;39148;53.332;6.922;2023-02-12T03:24:49;9.40;93.40
53254;DHT22;39148;53.332;6.922;2023-02-12T03:27:30;9.40;92.00
53254;DHT22;39148;53.332;6.922;2023-02-12T03:32:28;9.30;93.50
53254;DHT22;39148;53.332;6.922;2023-02-12T03:37:56;9.50;93.50
53254;DHT22;39148;53.332;6.922;2023-02-12T03:40:30;9.50;93.40
53254;DHT22;39148;53.332;6.922;2023-02-12T03:45:48;9.40;92.70
53254;DHT22;39148;53.332;6.922;2023-02-12T03:51:04;9.50;93.40
53254;DHT22;39148;53.332;6.922;2023-02-12T03:53:35;9.40;92.70
53254;DHT22;39148;53.332;6.922;2023-02-12T03:58:34;9.30;93.50
53254;DHT22;39148;53.332;6.922;2023-02-12T04:01:02;9.40;92.70
53254;DHT22;39148;53.332;6.922;2023-02-12T04:03:29;9.50;92.70
53254;DHT22;39148;53.332;6.922;2023-02-12T04:05:55;9.40;93.40
53254;DHT22;39148;53.332;6.922;2023-02-12T04:08:22;9.30;93.40
53254;DHT22;39148;53.332;6.922;2023-02-12T04:11:11;9.30;93.40
53254;DHT22;39148;53.332;6.922;2023-02-12T04:14:12;9.50;93.40
53254;DHT22;39148;53.332;6.922;2023-02-12T04:36:23;9.40;93.50
53254;DHT22;39148;53.332;6.922;2023-02-12T04:38:54;9.30;92.50
53254;DHT22;39148;53.332;6.922;2023-02-12T04:41:22;9.30;93.40
53254;DHT22;39148;53.332;6.922;2023-02-12T04:46:14;9.40;93.40
53254;DHT22;39148;53.332;6.922;2023-02-12T04:48:52;9.40;92.70
53254;DHT22;39148;53.332;6.922;2023-02-12T04:56:11;9.30;92.70
53254;DHT22;39148;53.332;6.922;2023-02-12T04:58:38;9.40;93.40
53254;DHT22;39148;53.332;6.922;2023-02-12T05:01:04;9.40;93.40
53254;DHT22;39148;53.332;6.922;2023-02-12T05:08:27;9.30;93.50
53254;DHT22;39148;53.332;6.922;2023-02-12T05:10:52;9.40;92.70
53254;DHT22;39148;53.332;6.922;2023-02-12T05:15:44;9.30;93.40
53254;DHT22;39148;53.332;6.922;2023-02-12T05:23:02;9.30;92.70
53254;DHT22;39148;53.332;6.922;2023-02-12T05:25:27;9.20;93.40
53254;DHT22;39148;53.332;6.922;2023-02-12T05:32:47;9.30;93.50
53254;DHT22;39148;53.332;6.922;2023-02-12T05:37:38;9.30;93.50
53254;DHT22;39148;53.332;6.922;2023-02-12T05:40:05;9.30;93.40
53254;DHT22;39148;53.332;6.922;2023-02-12T05:42:31;9.30;93.50
53254;DHT22;39148;53.332;6.922;2023-02-12T05:47:23;9.30;93.40
53254;DHT22;39148;53.332;6.922;2023-02-12T05:54:40;9.30;93.60
53254;DHT22;39148;53.332;6.922;2023-02-12T06:01:58;9.20;93.40
53254;DHT22;39148;53.332;6.922;2023-02-12T06:04:26;9.10;92.50
53254;DHT22;39148;53.332;6.922;2023-02-12T06:06:53;9.20;93.50
53254;DHT22;39148;53.332;6.922;2023-02-12T06:11:46;9.10;93.50
53254;DHT22;39148;53.332;6.922;2023-02-12T06:14:17;9.20;92.70
53254;DHT22;39148;53.332;6.922;2023-02-12T06:16:44;9.30;92.60
53254;DHT22;39148;53.332;6.922;2023-02-12T06:19:11;9.30;93.50
53254;DHT22;39148;53.332;6.922;2023-02-12T06:21:37;9.10;93.40
53254;DHT22;39148;53.332;6.922;2023-02-12T06:24:03;9.10;93.40
53254;DHT22;39148;53.332;6.922;2023-02-12T06:26:29;9.20;92.70
53254;DHT22;39148;53.332;6.922;2023-02-12T06:28:55;9.20;93.40
53254;DHT22;39148;53.332;6.922;2023-02-12T06:31:32;9.20;92.60
53254;DHT22;39148;53.332;6.922;2023-02-12T06:34:01;9.10;93.40
53254;DHT22;39148;53.332;6.922;2023-02-12T06:36:27;9.30;93.50
53254;DHT22;39148;53.332;6.922;2023-02-12T06:43:45;9.20;93.40
53254;DHT22;39148;53.332;6.922;2023-02-12T06:46:11;9.20;93.40
53254;DHT22;39148;53.332;6.922;2023-02-12T06:51:14;9.20;92.80
53254;DHT22;39148;53.332;6.922;2023-02-12T06:56:09;9.20;92.60
53254;DHT22;39148;53.332;6.922;2023-02-12T06:58:37;9.20;92.80
53254;DHT22;39148;53.332;6.922;2023-02-12T07:03:38;9.30;93.50
53254;DHT22;39148;53.332;6.922;2023-02-12T07:06:04;9.10;93.50
53254;DHT22;39148;53.332;6.922;2023-02-12T07:08:30;9.10;93.50
53254;DHT22;39148;53.332;6.922;2023-02-12T07:10:56;9.10;93.50
53254;DHT22;39148;53.332;6.922;2023-02-12T07:13:21;9.20;92.80
53254;DHT22;39148;53.332;6.922;2023-02-12T07:20:39;9.30;93.50
53254;DHT22;39148;53.332;6.922;2023-02-12T07:23:05;9.10;93.50
53254;DHT22;39148;53.332;6.922;2023-02-12T07:30:23;9.10;93.50
53254;DHT22;39148;53.332;6.922;2023-02-12T07:37:40;9.20;93.50
53254;DHT22;39148;53.332;6.922;2023-02-12T07:40:07;9.10;93.50
53254;DHT22;39148;53.332;6.922;2023-02-12T07:44:59;9.20;92.80
53254;DHT22;39148;53.332;6.922;2023-02-12T07:47:24;9.20;93.50
53254;DHT22;39148;53.332;6.922;2023-02-12T07:49:51;9.10;92.80
53254;DHT22;39148;53.332;6.922;2023-02-12T07:52:16;9.10;93.60
53254;DHT22;39148;53.332;6.922;2023-02-12T07:54:42;9.20;92.80
53254;DHT22;39148;53.332;6.922;2023-02-12T07:57:08;9.20;93.60
53254;DHT22;39148;53.332;6.922;2023-02-12T08:06:54;9.10;92.60
53254;DHT22;39148;53.332;6.922;2023-02-12T08:09:26;9.10;92.60
53254;DHT22;39148;53.332;6.922;2023-02-12T08:11:52;9.10;93.60
53254;DHT22;39148;53.332;6.922;2023-02-12T08:14:19;9.10;93.50
53254;DHT22;39148;53.332;6.922;2023-02-12T08:16:46;9.20;92.70
53254;DHT22;39148;53.332;6.922;2023-02-12T08:19:13;9.10;93.80
53254;DHT22;39148;53.332;6.922;2023-02-12T08:21:39;9.10;93.50
53254;DHT22;39148;53.332;6.922;2023-02-12T08:24:05;9.10;93.60
53254;DHT22;39148;53.332;6.922;2023-02-12T08:26:31;9.10;93.70
53254;DHT22;39148;53.332;6.922;2023-02-12T08:29:07;9.10;92.20
53254;DHT22;39148;53.332;6.922;2023-02-12T08:34:19;9.20;92.80
53254;DHT22;39148;53.332;6.922;2023-02-12T08:36:48;9.20;93.50
53254;DHT22;39148;53.332;6.922;2023-02-12T08:39:14;9.10;93.80
53254;DHT22;39148;53.332;6.922;2023-02-12T08:41:40;9.30;93.60
53254;DHT22;39148;53.332;6.922;2023-02-12T08:44:07;9.10;92.80
53254;DHT22;39148;53.332;6.922;2023-02-12T08:46:35;9.20;92.70
53254;DHT22;39148;53.332;6.922;2023-02-12T08:49:04;9.10;92.70
53254;DHT22;39148;53.332;6.922;2023-02-12T08:51:34;9.10;92.80
53254;DHT22;39148;53.332;6.922;2023-02-12T08:54:04;9.20;93.30
53254;DHT22;39148;53.332;6.922;2023-02-12T08:56:32;9.20;92.70
53254;DHT22;39148;53.332;6.922;2023-02-12T08:59:00;9.20;93.60
53254;DHT22;39148;53.332;6.922;2023-02-12T09:01:28;9.20;92.90
53254;DHT22;39148;53.332;6.922;2023-02-12T09:03:54;9.10;93.70
53254;DHT22;39148;53.332;6.922;2023-02-12T09:06:22;9.20;93.70
53254;DHT22;39148;53.332;6.922;2023-02-12T09:11:17;9.20;93.60
53254;DHT22;39148;53.332;6.922;2023-02-12T09:13:45;9.20;92.90
53254;DHT22;39148;53.332;6.922;2023-02-12T09:16:11;9.00;93.50
53254;DHT22;39148;53.332;6.922;2023-02-12T09:18:38;9.10;92.80
53254;DHT22;39148;53.332;6.922;2023-02-12T09:21:12;9.10;92.80
53254;DHT22;39148;53.332;6.922;2023-02-12T09:23:39;9.10;92.90
53254;DHT22;39148;53.332;6.922;2023-02-12T09:33:24;9.20;92.80
53254;DHT22;39148;53.332;6.922;2023-02-12T09:35:50;9.10;93.50
53254;DHT22;39148;53.332;6.922;2023-02-12T09:38:16;9.10;93.50
53254;DHT22;39148;53.332;6.922;2023-02-12T09:52:02;9.20;92.80
53254;DHT22;39148;53.332;6.922;2023-02-12T09:54:38;9.20;93.60
53254;DHT22;39148;53.332;6.922;2023-02-12T09:57:39;9.10;92.80
53254;DHT22;39148;53.332;6.922;2023-02-12T10:02:38;9.20;92.70
53254;DHT22;39148;53.332;6.922;2023-02-12T10:05:10;9.20;92.70
53254;DHT22;39148;53.332;6.922;2023-02-12T10:13:04;9.10;92.80
53254;DHT22;39148;53.332;6.922;2023-02-12T10:15:44;9.20;93.60
53254;DHT22;39148;53.332;6.922;2023-02-12T10:18:34;9.20;92.90
53254;DHT22;39148;53.332;6.922;2023-02-12T10:28:51;9.20;92.60
53254;DHT22;39148;53.332;6.922;2023-02-12T10:31:38;9.30;92.90
53254;DHT22;39148;53.332;6.922;2023-02-12T10:34:21;9.30;92.80
53254;DHT22;39148;53.332;6.922;2023-02-12T10:36:49;9.20;93.50
53254;DHT22;39148;53.332;6.922;2023-02-12T10:44:20;9.30;93.70
53254;DHT22;39148;53.332;6.922;2023-02-12T10:46:46;9.20;93.60
53254;DHT22;39148;53.332;6.922;2023-02-12T10:49:14;9.20;93.60
53254;DHT22;39148;53.332;6.922;2023-02-12T10:57:03;9.30;92.70
53254;DHT22;39148;53.332;6.922;2023-02-12T11:01:56;9.20;93.50
53254;DHT22;39148;53.332;6.922;2023-02-12T11:09:46;9.30;92.60
53254;DHT22;39148;53.332;6.922;2023-02-12T11:14:52;9.40;92.70
53254;DHT22;39148;53.332;6.922;2023-02-12T11:17:32;9.30;92.20
53254;DHT22;39148;53.332;6.922;2023-02-12T11:20:26;9.30;92.80
53254;DHT22;39148;53.332;6.922;2023-02-12T11:25:23;9.40;93.50
53254;DHT22;39148;53.332;6.922;2023-02-12T11:27:59;9.40;92.20
53254;DHT22;39148;53.332;6.922;2023-02-12T11:30:26;9.50;93.60
53254;DHT22;39148;53.332;6.922;2023-02-12T11:32:52;9.50;93.50
53254;DHT22;39148;53.332;6.922;2023-02-12T11:35:23;9.40;93.50
53254;DHT22;39148;53.332;6.922;2023-02-12T11:40:25;9.50;92.70
53254;DHT22;39148;53.332;6.922;2023-02-12T11:42:55;9.40;92.70
53254;DHT22;39148;53.332;6.922;2023-02-12T11:45:36;9.30;93.50
53254;DHT22;39148;53.332;6.922;2023-02-12T11:48:18;9.50;92.30
53254;DHT22;39148;53.332;6.922;2023-02-12T11:50:50;9.50;92.70
53254;DHT22;39148;53.332;6.922;2023-02-12T11:53:24;9.40;93.50
53254;DHT22;39148;53.332;6.922;2023-02-12T11:55:54;9.40;93.50
53254;DHT22;39148;53.332;6.922;2023-02-12T11:58:23;9.50;92.60
53254;DHT22;39148;53.332;6.922;2023-02-12T12:16:49;9.50;92.80
53254;DHT22;39148;53.332;6.922;2023-02-12T12:19:44;9.50;93.60
53254;DHT22;39148;53.332;6.922;2023-02-12T12:22:49;9.50;92.30
53254;DHT22;39148;53.332;6.922;2023-02-12T12:41:22;9.60;92.70
53254;DHT22;39148;53.332;6.922;2023-02-12T12:46:42;9.60;93.50
53254;DHT22;39148;53.332;6.922;2023-02-12T12:52:06;9.60;93.50
53254;DHT22;39148;53.332;6.922;2023-02-12T13:00:39;9.80;92.20
53254;DHT22;39148;53.332;6.922;2023-02-12T13:05:53;9.70;92.00
53254;DHT22;39148;53.332;6.922;2023-02-12T13:13:47;9.90;93.40
53254;DHT22;39148;53.332;6.922;2023-02-12T13:16:22;9.90;93.40
53254;DHT22;39148;53.332;6.922;2023-02-12T13:19:13;9.80;92.20
53254;DHT22;39148;53.332;6.922;2023-02-12T13:21:54;9.90;93.30
53254;DHT22;39148;53.332;6.922;2023-02-12T13:26:57;9.90;92.70
53254;DHT22;39148;53.332;6.922;2023-02-12T13:29:32;9.90;93.40
53254;DHT22;39148;53.332;6.922;2023-02-12T13:32:22;9.90;92.20
53254;DHT22;39148;53.332;6.922;2023-02-12T13:34:49;9.90;93.40
53254;DHT22;39148;53.332;6.922;2023-02-12T13:37:24;10.00;93.40
53254;DHT22;39148;53.332;6.922;2023-02-12T13:39:58;9.80;92.50
53254;DHT22;39148;53.332;6.922;2023-02-12T13:56:28;10.10;92.10
53254;DHT22;39148;53.332;6.922;2023-02-12T13:58:54;10.10;92.60
53254;DHT22;39148;53.332;6.922;2023-02-12T14:01:35;10.10;92.60
53254;DHT22;39148;53.332;6.922;2023-02-12T14:09:34;10.10;92.50
53254;DHT22;39148;53.332;6.922;2023-02-12T14:12:01;10.10;92.60
53254;DHT22;39148;53.332;6.922;2023-02-12T14:14:31;10.10;92.40
53254;DHT22;39148;53.332;6.922;2023-02-12T14:37:56;10.10;93.20
53254;DHT22;39148;53.332;6.922;2023-02-12T14:45:57;10.20;92.30
53254;DHT22;39148;53.332;6.922;2023-02-12T14:48:43;10.10;93.20
53254;DHT22;39148;53.332;6.922;2023-02-12T14:51:41;10.10;93.20
53254;DHT22;39148;53.332;6.922;2023-02-12T14:54:31;10.20;92.40
53254;DHT22;39148;53.332;6.922;2023-02-12T14:57:02;10.20;92.30
53254;DHT22;39148;53.332;6.922;2023-02-12T14:59:33;10.20;92.30
53254;DHT22;39148;53.332;6.922;2023-02-12T15:02:03;10.30;92.30
53254;DHT22;39148;53.332;6.922;2023-02-12T15:04:33;10.10;92.30
53254;DHT22;39148;53.332;6.922;2023-02-12T15:07:08;10.20;92.40
53254;DHT22;39148;53.332;6.922;2023-02-12T15:09:43;10.20;93.20
53254;DHT22;39148;53.332;6.922;2023-02-12T15:12:25;10.30;92.40
53254;DHT22;39148;53.332;6.922;2023-02-12T15:18:03;10.30;93.20
53254;DHT22;39148;53.332;6.922;2023-02-12T15:20:43;10.20;92.40
53254;DHT22;39148;53.332;6.922;2023-02-12T15:25:59;10.30;92.30
53254;DHT22;39148;53.332;6.922;2023-02-12T15:28:33;10.20;92.30
53254;DHT22;39148;53.332;6.922;2023-02-12T15:31:02;10.30;93.10
53254;DHT22;39148;53.332;6.922;2023-02-12T15:33:35;10.30;93.20
53254;DHT22;39148;53.332;6.922;2023-02-12T15:36:02;10.40;92.40
53254;DHT22;39148;53.332;6.922;2023-02-12T15:38:39;10.30;92.30
53254;DHT22;39148;53.332;6.922;2023-02-12T15:41:06;10.30;92.40
53254;DHT22;39148;53.332;6.922;2023-02-12T15:43:38;10.20;92.40
53254;DHT22;39148;53.332;6.922;2023-02-12T15:46:10;10.20;92.20
53254;DHT22;39148;53.332;6.922;2023-02-12T15:48:39;10.30;93.10
53254;DHT22;39148;53.332;6.922;2023-02-12T15:51:07;10.30;92.40
53254;DHT22;39148;53.332;6.922;2023-02-12T15:53:34;10.20;93.20
53254;DHT22;39148;53.332;6.922;2023-02-12T15:56:02;10.40;93.10
53254;DHT22;39148;53.332;6.922;2023-02-12T15:58:30;10.30;92.40
53254;DHT22;39148;53.332;6.922;2023-02-12T16:01:03;10.30;92.30
53254;DHT22;39148;53.332;6.922;2023-02-12T16:03:31;10.40;93.20
53254;DHT22;39148;53.332;6.922;2023-02-12T16:06:07;10.30;92.40
53254;DHT22;39148;53.332;6.922;2023-02-12T16:08:39;10.30;92.20
53254;DHT22;39148;53.332;6.922;2023-02-12T16:11:06;10.30;92.40
53254;DHT22;39148;53.332;6.922;2023-02-12T16:13:50;10.30;92.30
53254;DHT22;39148;53.332;6.922;2023-02-12T16:18:44;10.20;92.30
53254;DHT22;39148;53.332;6.922;2023-02-12T16:21:19;10.20;92.30
53254;DHT22;39148;53.332;6.922;2023-02-12T16:23:48;10.20;92.30
53254;DHT22;39148;53.332;6.922;2023-02-12T16:26:20;10.30;93.10
53254;DHT22;39148;53.332;6.922;2023-02-12T16:28:49;10.40;93.10
53254;DHT22;39148;53.332;6.922;2023-02-12T16:31:16;10.30;92.40
53254;DHT22;39148;53.332;6.922;2023-02-12T16:33:47;10.30;92.40
53254;DHT22;39148;53.332;6.922;2023-02-12T16:38:45;10.30;92.30
53254;DHT22;39148;53.332;6.922;2023-02-12T16:44:19;10.30;91.70
53254;DHT22;39148;53.332;6.922;2023-02-12T16:46:47;10.30;93.20
53254;DHT22;39148;53.332;6.922;2023-02-12T16:49:22;10.10;93.10
53254;DHT22;39148;53.332;6.922;2023-02-12T16:51:49;10.30;93.20
53254;DHT22;39148;53.332;6.922;2023-02-12T16:54:32;10.20;92.40
53254;DHT22;39148;53.332;6.922;2023-02-12T16:56:59;10.30;93.20
53254;DHT22;39148;53.332;6.922;2023-02-12T16:59:26;10.30;93.20
53254;DHT22;39148;53.332;6.922;2023-02-12T17:02:05;10.20;93.20
53254;DHT22;39148;53.332;6.922;2023-02-12T17:04:34;10.30;93.20
53254;DHT22;39148;53.332;6.922;2023-02-12T17:06:59;10.20;93.10
53254;DHT22;39148;53.332;6.922;2023-02-12T17:14:19;10.30;93.30
53254;DHT22;39148;53.332;6.922;2023-02-12T17:16:45;10.30;93.20
53254;DHT22;39148;53.332;6.922;2023-02-12T17:19:11;10.30;92.40
53254;DHT22;39148;53.332;6.922;2023-02-12T17:21:42;10.20;93.20
53254;DHT22;39148;53.332;6.922;2023-02-12T17:24:17;10.20;92.40
53254;DHT22;39148;53.332;6.922;2023-02-12T17:26:43;10.20;93.20
53254;DHT22;39148;53.332;6.922;2023-02-12T17:34:03;10.20;92.50
53254;DHT22;39148;53.332;6.922;2023-02-12T17:46:20;10.20;92.40
53254;DHT22;39148;53.332;6.922;2023-02-12T17:48:46;10.30;93.30
53254;DHT22;39148;53.332;6.922;2023-02-12T17:53:39;10.30;92.30
53254;DHT22;39148;53.332;6.922;2023-02-12T17:56:09;10.30;93.30
53254;DHT22;39148;53.332;6.922;2023-02-12T17:58:35;10.20;93.20
53254;DHT22;39148;53.332;6.922;2023-02-12T18:01:06;10.20;92.40
53254;DHT22;39148;53.332;6.922;2023-02-12T18:10:50;10.30;93.30
53254;DHT22;39148;53.332;6.922;2023-02-12T18:13:15;10.30;93.30
53254;DHT22;39148;53.332;6.922;2023-02-12T18:15:41;10.20;93.30
53254;DHT22;39148;53.332;6.922;2023-02-12T18:18:07;10.20;92.50
53254;DHT22;39148;53.332;6.922;2023-02-12T18:25:25;10.20;93.30
53254;DHT22;39148;53.332;6.922;2023-02-12T18:30:17;10.20;93.30
53254;DHT22;39148;53.332;6.922;2023-02-12T18:32:43;10.20;93.30
53254;DHT22;39148;53.332;6.922;2023-02-12T18:35:09;10.20;92.60
53254;DHT22;39148;53.332;6.922;2023-02-12T18:37:35;10.20;93.30
53254;DHT22;39148;53.332;6.922;2023-02-12T18:44:53;10.10;93.30
53254;DHT22;39148;53.332;6.922;2023-02-12T18:47:20;10.30;93.30
53254;DHT22;39148;53.332;6.922;2023-02-12T18:54:37;10.20;93.30
53254;DHT22;39148;53.332;6.922;2023-02-12T18:57:03;10.10;93.30
53254;DHT22;39148;53.332;6.922;2023-02-12T19:01:55;10.10;92.60
53254;DHT22;39148;53.332;6.922;2023-02-12T19:04:22;10.20;92.40
53254;DHT22;39148;53.332;6.922;2023-02-12T19:06:53;10.10;92.40
53254;DHT22;39148;53.332;6.922;2023-02-12T19:09:21;10.10;92.40
53254;DHT22;39148;53.332;6.922;2023-02-12T19:11:50;10.10;93.30
53254;DHT22;39148;53.332;6.922;2023-02-12T19:14:17;10.10;92.60
53254;DHT22;39148;53.332;6.922;2023-02-12T19:24:04;10.20;93.40
53254;DHT22;39148;53.332;6.922;2023-02-12T19:26:34;10.10;92.50
53254;DHT22;39148;53.332;6.922;2023-02-12T19:29:01;10.10;92.60
53254;DHT22;39148;53.332;6.922;2023-02-12T19:34:06;10.20;92.50
53254;DHT22;39148;53.332;6.922;2023-02-12T19:36:34;10.20;92.50
53254;DHT22;39148;53.332;6.922;2023-02-12T19:41:28;10.10;93.40
53254;DHT22;39148;53.332;6.922;2023-02-12T19:43:59;10.20;93.40
53254;DHT22;39148;53.332;6.922;2023-02-12T19:46:27;10.10;92.50
53254;DHT22;39148;53.332;6.922;2023-02-12T19:48:56;10.20;93.40
53254;DHT22;39148;53.332;6.922;2023-02-12T19:51:22;10.10;92.70
53254;DHT22;39148;53.332;6.922;2023-02-12T19:53:49;10.10;92.70
53254;DHT22;39148;53.332;6.922;2023-02-12T19:58:42;10.20;93.40
53254;DHT22;39148;53.332;6.922;2023-02-12T20:01:13;10.10;92.70
53254;DHT22;39148;53.332;6.922;2023-02-12T20:03:39;10.10;93.40
53254;DHT22;39148;53.332;6.922;2023-02-12T20:06:11;10.10;93.40
53254;DHT22;39148;53.332;6.922;2023-02-12T20:08:39;10.20;92.50
53254;DHT22;39148;53.332;6.922;2023-02-12T20:11:10;10.00;93.40
53254;DHT22;39148;53.332;6.922;2023-02-12T20:16:07;10.20;93.50
53254;DHT22;39148;53.332;6.922;2023-02-12T20:18:33;10.10;92.70
53254;DHT22;39148;53.332;6.922;2023-02-12T20:23:25;10.10;93.50
53254;DHT22;39148;53.332;6.922;2023-02-12T20:28:17;10.10;92.70
53254;DHT22;39148;53.332;6.922;2023-02-12T20:30:44;10.00;93.40
53254;DHT22;39148;53.332;6.922;2023-02-12T20:38:03;10.10;92.70
53254;DHT22;39148;53.332;6.922;2023-02-12T20:40:29;10.00;93.40
53254;DHT22;39148;53.332;6.922;2023-02-12T20:42:55;10.10;92.70
53254;DHT22;39148;53.332;6.922;2023-02-12T20:47:47;10.00;93.40
53254;DHT22;39148;53.332;6.922;2023-02-12T20:50:13;10.20;93.50
53254;DHT22;39148;53.332;6.922;2023-02-12T20:52:39;10.10;92.70
53254;DHT22;39148;53.332;6.922;2023-02-12T20:55:05;10.10;93.50
53254;DHT22;39148;53.332;6.922;2023-02-12T21:00:02;10.00;93.50
53254;DHT22;39148;53.332;6.922;2023-02-12T21:02:28;10.00;93.50
53254;DHT22;39148;53.332;6.922;2023-02-12T21:04:54;10.10;92.70
53254;DHT22;39148;53.332;6.922;2023-02-12T21:09:46;10.10;93.50
53254;DHT22;39148;53.332;6.922;2023-02-12T21:21:59;10.10;93.50
53254;DHT22;39148;53.332;6.922;2023-02-12T21:24:24;10.00;92.70
53254;DHT22;39148;53.332;6.922;2023-02-12T21:26:52;10.00;92.60
53254;DHT22;39148;53.332;6.922;2023-02-12T21:29:18;10.10;93.50
53254;DHT22;39148;53.332;6.922;2023-02-12T21:31:46;10.00;92.70
53254;DHT22;39148;53.332;6.922;2023-02-12T21:34:16;10.00;93.40
53254;DHT22;39148;53.332;6.922;2023-02-12T21:36:43;10.00;92.50
53254;DHT22;39148;53.332;6.922;2023-02-12T21:39:13;10.00;92.70
53254;DHT22;39148;53.332;6.922;2023-02-12T21:41:40;10.10;92.60
53254;DHT22;39148;53.332;6.922;2023-02-12T21:44:10;10.10;93.40
53254;DHT22;39148;53.332;6.922;2023-02-12T21:46:37;10.10;93.60
53254;DHT22;39148;53.332;6.922;2023-02-12T21:49:03;9.80;93.40
53254;DHT22;39148;53.332;6.922;2023-02-12T21:51:34;10.00;93.50
53254;DHT22;39148;53.332;6.922;2023-02-12T21:54:02;10.00;92.70
53254;DHT22;39148;53.332;6.922;2023-02-12T21:56:29;9.90;93.50
53254;DHT22;39148;53.332;6.922;2023-02-12T21:58:56;10.00;93.40
53254;DHT22;39148;53.332;6.922;2023-02-12T22:01:29;10.00;92.60
53254;DHT22;39148;53.332;6.922;2023-02-12T22:03:57;10.00;92.70
53254;DHT22;39148;53.332;6.922;2023-02-12T22:06:24;10.00;93.40
53254;DHT22;39148;53.332;6.922;2023-02-12T22:11:18;10.10;93.50
53254;DHT22;39148;53.332;6.922;2023-02-12T22:13:44;10.00;92.70
53254;DHT22;39148;53.332;6.922;2023-02-12T22:16:15;9.90;93.40
53254;DHT22;39148;53.332;6.922;2023-02-12T22:18:42;9.90;92.70
53254;DHT22;39148;53.332;6.922;2023-02-12T22:21:09;10.10;93.50
53254;DHT22;39148;53.332;6.922;2023-02-12T22:26:13;9.90;92.60
53254;DHT22;39148;53.332;6.922;2023-02-12T22:28:53;10.00;92.70
53254;DHT22;39148;53.332;6.922;2023-02-12T22:31:22;10.00;93.50
53254;DHT22;39148;53.332;6.922;2023-02-12T22:33:49;9.90;92.70
53254;DHT22;39148;53.332;6.922;2023-02-12T22:36:17;9.90;92.70
53254;DHT22;39148;53.332;6.922;2023-02-12T22:38:43;9.90;92.40
53254;DHT22;39148;53.332;6.922;2023-02-12T22:41:09;9.90;93.40
53254;DHT22;39148;53.332;6.922;2023-02-12T22:43:36;10.00;92.60
53254;DHT22;39148;53.332;6.922;2023-02-12T22:46:03;10.10;93.50
53254;DHT22;39148;53.332;6.922;2023-02-12T22:50:56;9.90;92.70
53254;DHT22;39148;53.332;6.922;2023-02-12T22:53:22;9.80;93.40
53254;DHT22;39148;53.332;6.922;2023-02-12T22:58:15;9.90;92.50
53254;DHT22;39148;53.332;6.922;2023-02-12T23:03:07;9.90;93.50
53254;DHT22;39148;53.332;6.922;2023-02-12T23:05:36;9.90;93.40
53254;DHT22;39148;53.332;6.922;2023-02-12T23:08:04;9.70;93.40
53254;DHT22;39148;53.332;6.922;2023-02-12T23:12:56;9.90;93.50
53254;DHT22;39148;53.332;6.922;2023-02-12T23:15:22;9.70;93.40
53254;DHT22;39148;53.332;6.922;2023-02-12T23:17:49;9.90;93.40